createdAt,value
2017-12-19T00:01:51.778Z,87.67
2017-12-19T00:04:17.523Z,87.49
2017-12-19T00:06:43.296Z,86.46
2017-12-19T00:09:09.051Z,87.54
2017-12-19T00:11:34.807Z,87.26
2017-12-19T00:14:00.564Z,87.46
2017-12-19T00:16:26.346Z,87.61
2017-12-19T00:18:52.094Z,88.07
2017-12-19T00:21:17.828Z,87.33
2017-12-19T00:23:43.578Z,88.01
2017-12-19T00:26:09.362Z,87.07
2017-12-19T00:28:35.107Z,87.17
2017-12-19T00:31:00.863Z,87.43
2017-12-19T00:33:26.625Z,87.31
2017-12-19T00:35:52.372Z,87.79
2017-12-19T00:38:18.143Z,87.18
2017-12-19T00:40:43.883Z,88.30
2017-12-19T00:43:09.643Z,87.81
2017-12-19T00:45:35.391Z,88.05
2017-12-19T00:48:01.164Z,87.76
2017-12-19T00:50:26.906Z,87.89
2017-12-19T00:52:52.664Z,87.79
2017-12-19T00:55:18.415Z,87.46
2017-12-19T00:57:44.172Z,87.27
2017-12-19T01:00:09.927Z,87.97
2017-12-19T01:02:35.679Z,88.15
2017-12-19T01:05:01.444Z,88.20
2017-12-19T01:07:27.195Z,88.18
2017-12-19T01:09:52.931Z,88.21
2017-12-19T01:12:18.750Z,87.50
2017-12-19T01:14:44.483Z,87.08
2017-12-19T01:17:10.220Z,87.25
2017-12-19T01:19:35.963Z,87.41
2017-12-19T01:22:01.699Z,87.73
2017-12-19T01:24:27.452Z,87.92
2017-12-19T01:26:53.192Z,87.70
2017-12-19T01:29:18.935Z,87.91
2017-12-19T01:31:44.679Z,87.94
2017-12-19T01:34:10.422Z,87.87
2017-12-19T01:36:36.172Z,88.25
2017-12-19T01:39:01.963Z,88.61
2017-12-19T01:41:27.716Z,88.27
2017-12-19T01:43:54.250Z,87.93
2017-12-19T01:46:20.003Z,88.31
2017-12-19T01:48:45.754Z,88.35
2017-12-19T01:51:11.503Z,88.51
2017-12-19T01:53:37.275Z,88.91
2017-12-19T01:56:03.611Z,89.06
2017-12-19T01:58:29.346Z,88.64
2017-12-19T02:00:55.094Z,88.81
2017-12-19T02:03:20.846Z,89.06
2017-12-19T02:05:46.612Z,88.70
2017-12-19T02:08:12.362Z,88.84
2017-12-19T02:10:38.111Z,89.62
2017-12-19T02:13:03.870Z,89.84
2017-12-19T02:15:29.614Z,89.87
2017-12-19T02:17:55.362Z,89.25
2017-12-19T02:20:21.140Z,88.60
2017-12-19T02:22:46.899Z,88.85
2017-12-19T02:25:12.667Z,88.87
2017-12-19T02:27:38.419Z,88.46
2017-12-19T02:30:04.184Z,89.27
2017-12-19T02:32:29.940Z,89.80
2017-12-19T02:34:55.677Z,89.76
2017-12-19T02:37:21.439Z,89.69
2017-12-19T02:39:47.207Z,89.39
2017-12-19T02:42:12.999Z,88.88
2017-12-19T02:44:38.758Z,90.01
2017-12-19T02:47:04.526Z,89.60
2017-12-19T02:49:30.289Z,89.32
2017-12-19T02:51:56.200Z,89.32
2017-12-19T02:54:21.959Z,89.35
2017-12-19T02:56:47.718Z,89.61
2017-12-19T02:59:13.479Z,89.12
2017-12-19T03:01:39.254Z,89.74
2017-12-19T03:04:05.000Z,89.90
2017-12-19T03:06:30.776Z,90.07
2017-12-19T03:08:56.578Z,89.76
2017-12-19T03:11:22.351Z,89.61
2017-12-19T03:13:48.131Z,90.36
2017-12-19T03:16:13.895Z,90.28
2017-12-19T03:18:39.684Z,89.75
2017-12-19T03:21:05.454Z,90.15
2017-12-19T03:23:31.203Z,90.28
2017-12-19T03:25:56.960Z,89.79
2017-12-19T03:28:22.721Z,89.66
2017-12-19T03:30:48.480Z,89.64
2017-12-19T03:33:14.231Z,89.89
2017-12-19T03:35:39.992Z,89.26
2017-12-19T03:38:05.771Z,89.84
2017-12-19T03:40:31.594Z,90.18
2017-12-19T03:42:57.321Z,90.65
2017-12-19T03:45:23.067Z,89.80
2017-12-19T03:47:48.858Z,89.77
2017-12-19T03:50:14.628Z,90.27
2017-12-19T03:52:40.400Z,90.28
2017-12-19T03:55:06.159Z,90.46
2017-12-19T03:57:31.915Z,90.05
2017-12-19T03:59:57.684Z,89.55
2017-12-19T04:02:23.458Z,90.25
2017-12-19T04:04:49.208Z,89.46
2017-12-19T04:07:15.008Z,89.74
2017-12-19T04:09:40.799Z,89.57
2017-12-19T04:12:06.577Z,90.45
2017-12-19T04:14:32.335Z,90.41
2017-12-19T04:16:58.100Z,90.40
2017-12-19T04:19:23.873Z,89.66
2017-12-19T04:21:49.630Z,89.72
2017-12-19T04:24:15.408Z,90.68
2017-12-19T04:26:41.159Z,89.81
2017-12-19T04:29:06.919Z,89.87
2017-12-19T04:31:32.672Z,90.01
2017-12-19T04:33:58.427Z,90.18
2017-12-19T04:36:24.183Z,90.19
2017-12-19T04:38:49.977Z,90.46
2017-12-19T04:41:15.724Z,90.42
2017-12-19T04:43:41.484Z,90.49
2017-12-19T04:46:07.260Z,89.01
2017-12-19T04:48:33.028Z,89.49
2017-12-19T04:50:58.800Z,90.72
2017-12-19T04:53:24.557Z,89.86
2017-12-19T04:55:50.336Z,89.80
2017-12-19T04:58:16.086Z,89.95
2017-12-19T05:00:41.853Z,90.37
2017-12-19T05:03:07.628Z,91.27
2017-12-19T05:05:33.384Z,90.61
2017-12-19T05:07:59.135Z,91.08
2017-12-19T05:10:24.909Z,91.31
2017-12-19T05:12:50.663Z,90.84
2017-12-19T05:15:16.424Z,91.20
2017-12-19T05:17:42.196Z,90.81
2017-12-19T05:20:07.964Z,91.60
2017-12-19T05:22:33.715Z,91.00
2017-12-19T05:24:59.507Z,91.54
2017-12-19T05:27:25.272Z,91.52
2017-12-19T05:29:51.037Z,91.38
2017-12-19T05:32:16.823Z,90.52
2017-12-19T05:34:42.567Z,90.55
2017-12-19T05:37:08.332Z,90.94
2017-12-19T05:39:34.068Z,90.75
2017-12-19T05:41:59.831Z,90.15
2017-12-19T05:44:25.604Z,90.92
2017-12-19T05:46:51.373Z,90.56
2017-12-19T05:49:17.134Z,89.75
2017-12-19T05:51:42.909Z,89.85
2017-12-19T05:54:08.684Z,89.75
2017-12-19T05:56:34.443Z,89.84
2017-12-19T05:59:00.204Z,89.94
2017-12-19T06:01:25.995Z,89.73
2017-12-19T06:03:51.746Z,89.00
2017-12-19T06:06:17.486Z,89.12
2017-12-19T06:08:43.243Z,88.68
2017-12-19T06:11:09.011Z,87.78
2017-12-19T06:13:34.792Z,86.95
2017-12-19T06:16:00.536Z,87.88
2017-12-19T06:18:26.292Z,89.00
2017-12-19T06:20:52.047Z,89.04
2017-12-19T06:23:17.829Z,89.43
2017-12-19T06:25:43.586Z,89.52
2017-12-19T06:28:09.347Z,89.45
2017-12-19T06:30:35.093Z,88.79
2017-12-19T06:33:00.848Z,87.61
2017-12-19T06:35:26.621Z,87.72
2017-12-19T06:37:52.392Z,87.61
2017-12-19T06:40:18.143Z,87.52
2017-12-19T06:42:43.891Z,87.57
2017-12-19T06:45:09.631Z,87.14
2017-12-19T06:47:35.400Z,86.49
2017-12-19T06:50:01.151Z,86.67
2017-12-19T06:52:26.939Z,87.10
2017-12-19T06:54:52.684Z,86.68
2017-12-19T06:57:18.428Z,87.42
2017-12-19T06:59:44.201Z,87.71
2017-12-19T07:02:09.964Z,87.22
2017-12-19T07:04:35.739Z,86.99
2017-12-19T07:07:01.511Z,86.54
2017-12-19T07:09:27.349Z,86.72
2017-12-19T07:11:53.066Z,87.32
2017-12-19T07:14:18.857Z,87.01
2017-12-19T07:16:44.622Z,88.11
2017-12-19T07:19:10.394Z,88.79
2017-12-19T07:21:36.172Z,89.21
2017-12-19T07:24:01.952Z,89.19
2017-12-19T07:26:27.711Z,89.62
2017-12-19T07:28:53.480Z,89.52
2017-12-19T07:31:19.252Z,89.61
2017-12-19T07:33:45.012Z,88.39
2017-12-19T07:36:10.771Z,88.90
2017-12-19T07:38:36.536Z,89.47
2017-12-19T07:41:02.304Z,89.05
2017-12-19T07:43:28.064Z,89.05
2017-12-19T07:45:53.844Z,89.49
2017-12-19T07:48:19.587Z,89.77
2017-12-19T07:50:45.339Z,89.86
2017-12-19T07:53:11.106Z,89.10
2017-12-19T07:58:09.518Z,88.64
2017-12-19T08:00:35.296Z,88.72
2017-12-19T08:03:01.052Z,88.73
2017-12-19T08:05:26.828Z,88.21
2017-12-19T08:07:59.670Z,88.38
2017-12-19T08:10:25.452Z,88.46
2017-12-19T08:12:51.217Z,88.76
2017-12-19T08:15:16.988Z,88.75
2017-12-19T08:17:42.763Z,88.80
2017-12-19T08:20:08.521Z,89.27
2017-12-19T08:22:34.299Z,89.53
2017-12-19T08:25:00.056Z,89.69
2017-12-19T08:27:25.828Z,89.15
2017-12-19T08:29:51.575Z,89.54
2017-12-19T08:32:17.347Z,89.38
2017-12-19T08:34:43.132Z,88.87
2017-12-19T08:37:08.909Z,88.48
2017-12-19T08:39:34.656Z,88.27
2017-12-19T08:42:00.431Z,88.61
2017-12-19T08:44:26.200Z,88.91
2017-12-19T08:46:51.971Z,88.72
2017-12-19T08:49:17.719Z,88.70
2017-12-19T08:51:43.697Z,89.03
2017-12-19T08:54:09.473Z,88.32
2017-12-19T08:56:35.241Z,89.18
2017-12-19T08:59:01.008Z,88.38
2017-12-19T09:01:26.769Z,88.22
2017-12-19T09:03:52.532Z,88.90
2017-12-19T09:06:18.280Z,88.74
2017-12-19T09:08:44.030Z,88.46
2017-12-19T09:11:09.780Z,88.29
2017-12-19T09:13:35.544Z,88.66
2017-12-19T09:16:01.295Z,89.56
2017-12-19T09:18:27.055Z,89.71
2017-12-19T09:20:52.828Z,89.69
2017-12-19T09:23:18.599Z,90.02
2017-12-19T09:25:44.360Z,89.87
2017-12-19T09:28:10.115Z,89.53
2017-12-19T09:30:35.863Z,89.55
2017-12-19T09:33:01.641Z,88.85
2017-12-19T09:35:27.422Z,89.18
2017-12-19T09:37:53.172Z,89.20
2017-12-19T09:40:18.931Z,89.19
2017-12-19T09:42:44.689Z,89.10
2017-12-19T09:45:10.458Z,89.13
2017-12-19T09:47:36.228Z,88.83
2017-12-19T09:50:01.993Z,88.94
2017-12-19T09:52:27.740Z,88.63
2017-12-19T09:55:00.585Z,88.92
2017-12-19T09:57:26.332Z,88.71
2017-12-19T09:59:52.100Z,88.76
2017-12-19T10:02:17.872Z,88.70
2017-12-19T10:04:43.652Z,88.66
2017-12-19T10:07:09.410Z,87.87
2017-12-19T10:09:35.176Z,88.21
2017-12-19T10:12:00.928Z,88.50
2017-12-19T10:14:26.688Z,88.39
2017-12-19T10:16:52.443Z,88.04
2017-12-19T10:19:18.207Z,87.70
2017-12-19T10:21:43.985Z,87.23
2017-12-19T10:24:09.748Z,86.87
2017-12-19T10:26:35.516Z,87.09
2017-12-19T10:29:01.284Z,87.12
2017-12-19T10:31:27.055Z,87.73
2017-12-19T10:33:52.817Z,88.05
2017-12-19T10:36:18.575Z,87.46
2017-12-19T10:38:44.356Z,87.27
2017-12-19T10:41:10.124Z,87.41
2017-12-19T10:43:35.890Z,87.42
2017-12-19T10:46:01.655Z,87.44
2017-12-19T10:48:27.440Z,87.34
2017-12-19T10:50:53.185Z,86.92
2017-12-19T10:53:18.954Z,86.98
2017-12-19T10:55:44.688Z,87.82
2017-12-19T10:58:10.439Z,87.41
2017-12-19T11:00:36.195Z,87.19
2017-12-19T11:03:01.950Z,87.88
2017-12-19T11:05:27.715Z,87.49
2017-12-19T11:07:53.476Z,87.49
2017-12-19T11:10:19.228Z,88.24
2017-12-19T11:12:44.984Z,87.86
2017-12-19T11:15:10.749Z,87.70
2017-12-19T11:17:36.520Z,87.71
2017-12-19T11:20:02.292Z,87.97
2017-12-19T11:22:28.069Z,87.29
2017-12-19T11:24:53.868Z,86.64
2017-12-19T11:27:19.652Z,86.78
2017-12-19T11:29:45.439Z,86.56
2017-12-19T11:32:11.200Z,86.53
2017-12-19T11:34:36.963Z,86.14
2017-12-19T11:37:02.726Z,86.54
2017-12-19T11:39:28.503Z,85.89
2017-12-19T11:41:54.259Z,85.77
2017-12-19T11:44:20.023Z,85.81
2017-12-19T11:46:45.784Z,85.51
2017-12-19T11:49:11.560Z,85.43
2017-12-19T11:51:37.310Z,85.50
2017-12-19T11:54:03.104Z,85.73
2017-12-19T11:56:28.863Z,85.34
2017-12-19T11:58:54.632Z,85.73
2017-12-19T12:01:20.375Z,85.62
2017-12-19T12:03:46.135Z,84.96
2017-12-19T12:06:11.884Z,84.67
2017-12-19T12:08:37.659Z,85.01
2017-12-19T12:11:03.428Z,84.80
2017-12-19T12:13:29.213Z,84.40
2017-12-19T12:15:54.960Z,83.87
2017-12-19T12:18:20.717Z,84.00
2017-12-19T12:20:46.475Z,84.53
2017-12-19T12:23:12.230Z,83.73
2017-12-19T12:25:37.988Z,83.66
2017-12-19T12:28:03.747Z,83.60
2017-12-19T12:30:29.527Z,84.49
2017-12-19T12:32:55.288Z,84.96
2017-12-19T12:35:21.068Z,84.09
2017-12-19T12:37:46.840Z,84.25
2017-12-19T12:40:12.603Z,84.21
2017-12-19T12:42:38.355Z,84.53
2017-12-19T12:45:04.102Z,84.42
2017-12-19T12:47:29.848Z,84.85
2017-12-19T12:49:55.592Z,85.00
2017-12-19T12:52:21.352Z,84.96
2017-12-19T12:54:47.103Z,85.33
2017-12-19T12:57:12.865Z,85.22
2017-12-19T12:59:38.663Z,85.58
2017-12-19T13:02:04.434Z,85.33
2017-12-19T13:04:30.219Z,85.17
2017-12-19T13:06:56.005Z,84.89
2017-12-19T13:09:21.774Z,84.86
2017-12-19T13:11:47.515Z,84.50
2017-12-19T13:14:13.290Z,84.66
2017-12-19T13:16:39.072Z,84.42
2017-12-19T13:19:04.829Z,83.97
2017-12-19T13:21:30.597Z,84.25
2017-12-19T13:23:56.359Z,84.89
2017-12-19T13:26:22.123Z,85.40
2017-12-19T13:28:47.868Z,84.21
2017-12-19T13:31:13.702Z,84.26
2017-12-19T13:33:39.399Z,85.24
2017-12-19T13:36:05.135Z,85.43
2017-12-19T13:38:30.900Z,85.98
2017-12-19T13:40:56.657Z,87.05
2017-12-19T13:43:22.407Z,86.86
2017-12-19T13:45:48.161Z,87.67
2017-12-19T13:48:13.919Z,87.86
2017-12-19T13:50:39.685Z,88.61
2017-12-19T13:53:05.455Z,87.74
2017-12-19T13:55:31.226Z,86.74
2017-12-19T13:57:56.992Z,87.17
2017-12-19T14:00:22.746Z,86.51
2017-12-19T14:02:48.495Z,86.17
2017-12-19T14:05:14.239Z,85.07
2017-12-19T14:07:40.028Z,84.81
2017-12-19T14:10:05.789Z,84.72
2017-12-19T14:12:31.533Z,84.94
2017-12-19T14:14:57.291Z,84.91
2017-12-19T14:17:23.052Z,85.50
2017-12-19T14:19:48.811Z,85.95
2017-12-19T14:22:14.568Z,86.53
2017-12-19T14:24:40.337Z,86.28
2017-12-19T14:27:06.082Z,87.05
2017-12-19T14:29:31.852Z,86.85
2017-12-19T14:31:57.615Z,87.15
2017-12-19T14:34:23.371Z,87.51
2017-12-19T14:36:49.131Z,87.20
2017-12-19T14:39:14.901Z,86.88
2017-12-19T14:41:40.656Z,87.72
2017-12-19T14:44:06.412Z,87.26
2017-12-19T14:46:32.181Z,87.06
2017-12-19T14:48:57.973Z,86.48
2017-12-19T14:51:23.727Z,86.80
2017-12-19T14:53:49.459Z,86.82
2017-12-19T14:56:15.203Z,86.76
2017-12-19T14:58:40.974Z,88.16
2017-12-19T15:01:06.732Z,88.83
2017-12-19T15:03:32.492Z,89.05
2017-12-19T15:05:58.255Z,87.57
2017-12-19T15:08:24.007Z,87.00
2017-12-19T15:10:49.777Z,86.86
2017-12-19T15:13:15.540Z,86.57
2017-12-19T15:15:41.308Z,85.92
2017-12-19T15:18:07.068Z,85.76
2017-12-19T15:20:32.824Z,85.66
2017-12-19T15:22:58.592Z,86.73
2017-12-19T15:25:24.347Z,86.89
2017-12-19T15:27:50.088Z,87.21
2017-12-19T15:30:15.847Z,86.36
2017-12-19T15:32:41.591Z,85.88
2017-12-19T15:35:07.367Z,85.18
2017-12-19T15:37:33.126Z,85.44
2017-12-19T15:39:58.891Z,86.04
2017-12-19T15:42:24.655Z,86.02
2017-12-19T15:44:50.416Z,87.25
2017-12-19T15:47:16.191Z,87.98
2017-12-19T15:49:41.951Z,87.61
2017-12-19T15:52:07.712Z,86.55
2017-12-19T15:54:33.465Z,86.07
2017-12-19T15:56:59.278Z,86.89
2017-12-19T15:59:24.997Z,87.47
2017-12-19T16:01:50.789Z,87.03
2017-12-19T16:04:16.539Z,86.24
2017-12-19T16:06:42.303Z,87.35
2017-12-19T16:09:08.065Z,87.66
2017-12-19T16:11:33.819Z,86.61
2017-12-19T16:13:59.560Z,86.68
2017-12-19T16:16:25.302Z,86.57
2017-12-19T16:18:51.059Z,86.97
2017-12-19T16:21:16.811Z,86.43
2017-12-19T16:23:42.554Z,85.64
2017-12-19T16:26:08.305Z,87.39
2017-12-19T16:28:34.051Z,88.24
2017-12-19T16:30:59.791Z,89.44
2017-12-19T16:33:25.551Z,90.13
2017-12-19T16:35:51.307Z,88.61
2017-12-19T16:38:17.080Z,88.69
2017-12-19T16:40:42.832Z,88.76
2017-12-19T16:43:08.610Z,88.81
2017-12-19T16:45:34.372Z,89.20
2017-12-19T16:48:00.131Z,89.00
2017-12-19T16:50:25.884Z,89.78
2017-12-19T16:52:51.652Z,90.03
2017-12-19T16:55:17.404Z,88.88
2017-12-19T16:57:43.161Z,88.74
2017-12-19T17:06:26.463Z,89.89
2017-12-19T17:08:52.210Z,92.06
2017-12-19T17:11:17.960Z,93.19
2017-12-19T17:13:43.699Z,93.48
2017-12-19T17:16:09.439Z,93.97
2017-12-19T17:18:35.195Z,94.09
2017-12-19T17:21:00.957Z,94.31
2017-12-19T17:23:26.739Z,94.14
2017-12-19T17:25:52.500Z,94.30
2017-12-19T17:28:18.275Z,94.31
2017-12-19T17:30:44.043Z,94.40
2017-12-19T17:33:09.831Z,94.52
2017-12-19T17:35:35.592Z,94.54
2017-12-19T17:38:01.360Z,94.52
2017-12-19T17:40:27.127Z,94.51
2017-12-19T17:42:52.916Z,94.60
2017-12-19T17:45:18.668Z,94.56
2017-12-19T17:47:44.435Z,94.53
2017-12-19T17:50:10.200Z,94.74
2017-12-19T17:52:35.961Z,94.83
2017-12-19T17:55:01.722Z,94.87
2017-12-19T17:57:27.480Z,94.91
2017-12-19T17:59:53.252Z,94.97
2017-12-19T18:02:19.003Z,94.96
2017-12-19T18:04:44.755Z,94.96
2017-12-19T18:07:10.508Z,94.90
2017-12-19T18:09:36.264Z,94.85
2017-12-19T18:12:02.019Z,94.82
2017-12-19T18:14:27.783Z,94.78
2017-12-19T18:16:53.533Z,94.86
2017-12-19T18:19:19.371Z,95.01
2017-12-19T18:21:45.124Z,95.11
2017-12-19T18:24:10.886Z,95.23
2017-12-19T18:26:36.639Z,95.36
2017-12-19T18:29:02.398Z,95.32
2017-12-19T18:31:28.163Z,95.50
2017-12-19T18:33:53.910Z,95.58
2017-12-19T18:36:19.673Z,95.65
2017-12-19T18:38:45.444Z,95.76
2017-12-19T18:41:11.206Z,95.83
2017-12-19T18:43:36.964Z,95.83
2017-12-19T18:46:02.732Z,95.85
2017-12-19T18:48:28.463Z,95.86
2017-12-19T18:50:54.219Z,95.96
2017-12-19T18:53:19.964Z,95.94
2017-12-19T18:55:45.717Z,95.88
2017-12-19T18:58:11.482Z,95.96
2017-12-19T19:00:37.263Z,95.97
2017-12-19T19:03:03.026Z,95.96
2017-12-19T19:05:28.784Z,95.92
2017-12-19T19:07:54.566Z,95.89
2017-12-19T19:10:20.311Z,95.85
2017-12-19T19:12:46.073Z,95.91
2017-12-19T19:15:11.841Z,96.03
2017-12-19T19:17:37.612Z,95.88
2017-12-19T19:20:03.392Z,95.87
2017-12-19T19:22:29.172Z,95.97
2017-12-19T19:24:54.944Z,95.91
2017-12-19T19:27:20.722Z,95.82
2017-12-19T19:29:46.492Z,95.94
2017-12-19T19:32:12.268Z,95.95
2017-12-19T19:34:38.024Z,95.85
2017-12-19T19:37:03.800Z,96.00
2017-12-19T19:39:29.543Z,95.87
2017-12-19T19:41:55.304Z,95.93
2017-12-19T19:44:21.076Z,95.94
2017-12-19T19:46:46.832Z,95.95
2017-12-19T19:49:12.584Z,95.89
2017-12-19T19:51:38.328Z,95.83
2017-12-19T19:54:04.105Z,95.93
2017-12-19T19:56:29.859Z,96.01
2017-12-19T19:58:55.619Z,95.89
2017-12-19T20:01:21.372Z,95.92
2017-12-19T20:03:47.135Z,95.99
2017-12-19T20:06:12.912Z,96.01
2017-12-19T20:08:38.652Z,96.03
2017-12-19T20:11:04.402Z,96.00
2017-12-19T20:13:30.159Z,96.10
2017-12-19T20:15:55.910Z,96.18
2017-12-19T20:18:21.655Z,96.12
2017-12-19T20:20:47.419Z,96.12
2017-12-19T20:23:13.174Z,96.13
2017-12-19T20:25:38.927Z,96.08
2017-12-19T20:28:04.691Z,96.16
2017-12-19T20:30:30.460Z,96.18
2017-12-19T20:32:56.224Z,96.15
2017-12-19T20:35:22.015Z,96.20
2017-12-19T20:37:47.788Z,96.16
2017-12-19T20:40:13.549Z,96.20
2017-12-19T20:42:39.300Z,96.22
2017-12-19T20:45:05.051Z,96.21
2017-12-19T20:47:30.803Z,96.18
2017-12-19T20:49:56.554Z,96.15
2017-12-19T20:52:22.299Z,96.18
2017-12-19T20:54:48.048Z,96.25
2017-12-19T20:57:13.804Z,96.31
2017-12-19T20:59:39.567Z,96.33
2017-12-19T21:02:05.337Z,96.26
2017-12-19T21:04:31.084Z,96.32
2017-12-19T21:06:56.831Z,96.29
2017-12-19T21:09:22.591Z,96.33
2017-12-19T21:11:48.363Z,96.33
2017-12-19T21:14:14.112Z,96.37
2017-12-19T21:16:39.868Z,96.35
2017-12-19T21:19:05.614Z,96.29
2017-12-19T21:21:31.363Z,96.27
2017-12-19T21:23:57.104Z,96.32
2017-12-19T21:26:22.876Z,96.36
2017-12-19T21:28:48.624Z,96.38
2017-12-19T21:31:14.363Z,96.42
2017-12-19T21:33:40.136Z,96.46
2017-12-19T21:36:05.891Z,96.50
2017-12-19T21:38:31.676Z,96.50
2017-12-19T21:40:57.415Z,96.51
2017-12-19T21:43:23.190Z,96.51
2017-12-19T21:45:48.936Z,96.52
2017-12-19T21:48:14.687Z,96.51
2017-12-19T21:50:40.441Z,96.53
2017-12-19T21:53:06.220Z,96.54
2017-12-19T21:55:31.974Z,96.52
2017-12-19T21:57:57.723Z,96.53
2017-12-19T22:00:23.467Z,96.55
2017-12-19T22:02:49.223Z,96.54
2017-12-19T22:05:14.975Z,96.57
2017-12-19T22:07:40.755Z,96.56
2017-12-19T22:10:06.504Z,96.56
2017-12-19T22:12:32.261Z,96.59
2017-12-19T22:14:58.024Z,96.58
2017-12-19T22:17:23.779Z,96.59
2017-12-19T22:19:49.532Z,96.58
2017-12-19T22:22:15.284Z,96.60
2017-12-19T22:24:41.060Z,96.61
2017-12-19T22:27:06.811Z,96.60
2017-12-19T22:29:32.555Z,96.56
2017-12-19T22:31:58.309Z,96.59
2017-12-19T22:34:24.076Z,96.56
2017-12-19T22:36:49.823Z,96.56
2017-12-19T22:39:15.592Z,96.63
2017-12-19T22:41:41.351Z,96.62
2017-12-19T22:44:07.115Z,96.58
2017-12-19T22:46:32.987Z,96.61
2017-12-19T22:48:58.742Z,96.63
2017-12-19T22:51:24.500Z,96.66
2017-12-19T22:53:50.253Z,96.67
2017-12-19T22:56:16.016Z,96.67
2017-12-19T22:58:41.778Z,96.68
2017-12-19T23:01:07.556Z,96.69
2017-12-19T23:03:33.316Z,96.69
2017-12-19T23:05:59.081Z,96.69
2017-12-19T23:08:24.848Z,96.66
2017-12-19T23:10:50.622Z,96.67
2017-12-19T23:13:16.381Z,96.70
2017-12-19T23:15:42.142Z,96.71
2017-12-19T23:18:07.919Z,96.68
2017-12-19T23:20:33.673Z,96.70
2017-12-19T23:22:59.435Z,96.69
2017-12-19T23:25:25.196Z,96.68
2017-12-19T23:27:50.952Z,96.67
2017-12-19T23:30:16.713Z,96.67
2017-12-19T23:32:42.482Z,96.70
2017-12-19T23:35:08.232Z,96.73
2017-12-19T23:37:34.006Z,96.74
2017-12-19T23:39:59.761Z,96.72
2017-12-19T23:42:25.500Z,96.76
2017-12-19T23:44:51.257Z,96.75
2017-12-19T23:47:17.008Z,96.76
2017-12-19T23:49:42.773Z,96.72
2017-12-19T23:52:08.531Z,96.70
2017-12-19T23:54:34.302Z,96.61
2017-12-19T23:57:00.068Z,96.65
2017-12-19T23:59:25.844Z,96.72
